Time;durP1;ratioP1;P1;durP2;ratioP2;P2;SDS_P1;SDS_P2;PMS_P1;PMS_P2;Temp;Humidity;BMP_temperature;BMP_pressure;BME280_temperature;BME280_humidity;BME280_pressure;Samples;Min_cycle;Max_cycle;Signal;HPM_P1;HPM_P2
2022/01/25 00:08:53;;;;;;;0.00;0.00;;;5.50;99.90;;;;;;6241618;23;20014;-73
2022/01/25 00:27:42;;;;;;;0.00;0.00;;;5.70;99.90;;;;;;6242012;23;20011;-73
2022/01/25 00:32:53;;;;;;;0.00;0.00;;;5.40;99.90;;;;;;6242152;23;19945;-75
2022/01/25 00:35:19;;;;;;;0.00;0.00;;;5.50;99.90;;;;;;6242161;23;20023;-74
2022/01/25 00:37:45;;;;;;;0.00;0.00;;;5.50;99.90;;;;;;6243041;23;20306;-76
2022/01/25 00:40:10;;;;;;;0.00;0.00;;;5.50;99.90;;;;;;6240645;22;20008;-74
2022/01/25 00:42:36;;;;;;;0.00;0.00;;;5.60;99.90;;;;;;6242890;22;20420;-74
2022/01/25 00:45:02;;;;;;;0.00;0.00;;;5.40;99.90;;;;;;6243264;23;20031;-74
2022/01/25 00:47:28;;;;;;;;;;;5.30;99.90;;;;;;6242618;22;20004;-73
2022/01/25 00:49:54;;;;;;;0.00;0.00;;;5.20;99.90;;;;;;6243050;23;19965;-73
2022/01/25 00:54:51;;;;;;;0.00;0.00;;;5.00;99.90;;;;;;6242339;22;20084;-72
2022/01/25 00:57:18;;;;;;;0.00;0.00;;;5.00;99.90;;;;;;6242470;22;20012;-73
2022/01/25 00:59:44;;;;;;;0.00;0.00;;;5.20;99.90;;;;;;6241422;23;20062;-72
2022/01/25 01:02:14;;;;;;;0.00;0.00;;;5.30;99.90;;;;;;6242368;23;19997;-74
2022/01/25 01:04:43;;;;;;;0.00;0.00;;;5.50;99.90;;;;;;6243009;22;20483;-73
2022/01/25 01:07:13;;;;;;;0.00;0.00;;;5.30;99.90;;;;;;6243217;22;20057;-73
2022/01/25 01:09:41;;;;;;;0.00;0.00;;;5.10;99.90;;;;;;6243510;22;20435;-73
2022/01/25 01:12:17;;;;;;;0.00;0.00;;;5.10;99.90;;;;;;6242431;22;20012;-74
2022/01/25 01:31:09;;;;;;;0.00;0.00;;;5.20;99.90;;;;;;6242692;23;20062;-73
2022/01/25 01:42:11;;;;;;;0.00;0.00;;;4.90;99.90;;;;;;6243299;22;20038;-73
2022/01/25 01:47:49;;;;;;;0.00;0.00;;;4.80;99.90;;;;;;6199367;22;20000;-74
2022/01/25 01:50:15;;;;;;;0.00;0.00;;;4.80;99.90;;;;;;6243766;23;20336;-73
2022/01/25 01:52:41;;;;;;;0.00;0.00;;;4.80;99.90;;;;;;6245064;22;20083;-74
2022/01/25 01:55:08;;;;;;;0.00;0.00;;;4.80;99.90;;;;;;6242645;23;20019;-72
2022/01/25 01:57:34;;;;;;;0.00;0.00;;;4.70;99.90;;;;;;6244106;22;20000;-74
2022/01/25 02:00:00;;;;;;;0.00;0.00;;;4.60;99.90;;;;;;6242951;23;20058;-73
2022/01/25 02:02:26;;;;;;;0.00;0.00;;;4.70;99.90;;;;;;6245110;22;20000;-72
2022/01/25 02:04:52;;;;;;;0.00;0.00;;;4.60;99.90;;;;;;6244426;23;20027;-74
2022/01/25 02:07:18;;;;;;;0.00;0.00;;;4.80;99.90;;;;;;6243291;23;20023;-75
2022/01/25 02:09:44;;;;;;;0.00;0.00;;;4.90;99.90;;;;;;6243996;23;20063;-74
2022/01/25 02:12:10;;;;;;;0.00;0.00;;;4.80;99.90;;;;;;6243743;23;20041;-74
2022/01/25 02:14:37;;;;;;;0.00;0.00;;;4.80;99.90;;;;;;6242006;22;20073;-73
2022/01/25 02:22:55;;;;;;;0.00;0.00;;;5.00;99.90;;;;;;6244056;23;20502;-75
2022/01/25 02:25:22;;;;;;;0.00;0.00;;;5.00;99.90;;;;;;6245846;22;19996;-74
2022/01/25 02:27:48;;;;;;;0.00;0.00;;;5.00;99.90;;;;;;6240660;23;20416;-74
2022/01/25 02:30:14;;;;;;;0.00;0.00;;;4.90;99.90;;;;;;6244220;23;20067;-73
2022/01/25 02:32:40;;;;;;;;;;;4.90;99.90;;;;;;6245385;22;20027;-73
2022/01/25 02:35:07;;;;;;;0.00;0.00;;;4.90;99.90;;;;;;6242331;22;20292;-73
2022/01/25 02:37:33;;;;;;;0.00;0.00;;;5.10;99.90;;;;;;6241200;22;20004;-74
2022/01/25 02:39:59;;;;;;;0.00;0.00;;;5.10;99.90;;;;;;6240903;22;20477;-75
2022/01/25 02:42:25;;;;;;;0.00;0.00;;;5.00;99.90;;;;;;6240802;23;20079;-74
2022/01/25 02:44:51;;;;;;;0.00;0.00;;;5.00;99.90;;;;;;6241808;22;20007;-73
2022/01/25 02:50:04;;;;;;;0.00;0.00;;;4.90;99.90;;;;;;6242920;23;20071;-72
2022/01/25 02:52:29;;;;;;;0.00;0.00;;;4.80;99.90;;;;;;6244075;22;20011;-74
2022/01/25 02:54:55;;;;;;;0.00;0.00;;;4.70;99.90;;;;;;6241465;23;20001;-73
2022/01/25 02:57:22;;;;;;;0.00;0.00;;;4.60;99.90;;;;;;6242822;22;20407;-74
2022/01/25 02:59:48;;;;;;;0.00;0.00;;;4.60;99.90;;;;;;6241310;22;20408;-74
2022/01/25 03:02:14;;;;;;;0.00;0.00;;;4.60;99.90;;;;;;6241750;23;19996;-74
2022/01/25 03:04:40;;;;;;;;;;;4.60;99.90;;;;;;6242707;22;20483;-74
2022/01/25 03:07:07;;;;;;;0.00;0.00;;;4.60;99.90;;;;;;6242449;23;19937;-73
2022/01/25 03:09:32;;;;;;;0.00;0.00;;;4.60;99.90;;;;;;6241648;22;20087;-74
2022/01/25 03:12:00;;;;;;;0.00;0.00;;;4.60;99.90;;;;;;6243911;23;20483;-74
2022/01/25 03:14:31;;;;;;;0.00;0.00;;;4.60;99.90;;;;;;6241085;22;19996;-73
2022/01/25 03:22:06;;;;;;;0.00;0.00;;;4.70;99.90;;;;;;6241361;22;20371;-73
2022/01/25 03:24:32;;;;;;;0.00;0.00;;;4.80;99.90;;;;;;6243717;22;20000;-73
2022/01/25 03:26:57;;;;;;;0.00;0.00;;;4.80;99.90;;;;;;6242674;22;20004;-73
2022/01/25 03:29:23;;;;;;;0.00;0.00;;;4.70;99.90;;;;;;6243326;23;20972;-73
2022/01/25 03:31:50;;;;;;;0.00;0.00;;;4.70;99.90;;;;;;6243968;23;20046;-76
2022/01/25 03:34:16;;;;;;;;;;;4.70;99.90;;;;;;6244070;23;19999;-72
2022/01/25 03:36:42;;;;;;;0.00;0.00;;;4.60;99.90;;;;;;6243308;22;19900;-72
2022/01/25 03:39:09;;;;;;;0.00;0.00;;;4.60;99.90;;;;;;6241662;23;20058;-73
2022/01/25 03:41:35;;;;;;;0.00;0.00;;;4.60;99.90;;;;;;6245344;22;20015;-74
2022/01/25 03:44:02;;;;;;;0.00;0.00;;;4.60;99.90;;;;;;6245961;22;20079;-74
2022/01/25 03:51:40;;;;;;;0.00;0.00;;;4.80;99.90;;;;;;6244417;23;20494;-73
2022/01/25 03:54:06;;;;;;;0.00;0.00;;;5.00;99.90;;;;;;6243544;22;19996;-74
2022/01/25 03:56:33;;;;;;;0.00;0.00;;;4.90;99.90;;;;;;6242546;23;20000;-74
2022/01/25 03:58:59;;;;;;;0.00;0.00;;;4.80;99.90;;;;;;6243582;22;20004;-74
2022/01/25 04:01:25;;;;;;;0.00;0.00;;;4.70;99.90;;;;;;6243582;22;20435;-73
2022/01/25 04:04:07;;;;;;;0.00;0.00;;;4.70;99.90;;;;;;6243724;22;20455;-73
2022/01/25 04:06:34;;;;;;;0.00;0.00;;;4.80;99.90;;;;;;6243691;22;20078;-71
2022/01/25 04:09:03;;;;;;;0.00;0.00;;;4.90;99.90;;;;;;6244489;22;20004;-74
2022/01/25 04:11:29;;;;;;;0.00;0.00;;;4.90;99.90;;;;;;6243501;22;20473;-74
2022/01/25 04:13:57;;;;;;;0.00;0.00;;;4.80;99.90;;;;;;6243159;23;19996;-73
2022/01/25 04:16:29;;;;;;;0.00;0.00;;;4.80;99.90;;;;;;6242817;22;20058;-73
2022/01/25 04:21:44;;;;;;;0.00;0.00;;;4.60;99.90;;;;;;6244052;23;20444;-73
2022/01/25 04:26:56;;;;;;;0.00;0.00;;;4.60;99.90;;;;;;6243114;23;20012;-72
2022/01/25 04:29:23;;;;;;;0.00;0.00;;;4.60;99.90;;;;;;6242917;22;20000;-73
2022/01/25 04:31:49;;;;;;;0.00;0.00;;;4.50;99.90;;;;;;6239945;23;20472;-73
2022/01/25 04:50:36;;;;;;;0.00;0.00;;;4.70;99.90;;;;;;6243076;23;20100;-74
2022/01/25 04:56:17;;;;;;;0.00;0.00;;;4.50;99.90;;;;;;6207480;23;20000;-74
2022/01/25 04:59:01;;;;;;;0.00;0.00;;;4.60;99.90;;;;;;6242473;22;20086;-75
2022/01/25 05:01:27;;;;;;;0.00;0.00;;;4.70;99.90;;;;;;6242295;22;20069;-74
2022/01/25 05:04:02;;;;;;;0.00;0.00;;;4.80;99.90;;;;;;6243310;22;20028;-73
2022/01/25 05:06:30;;;;;;;0.00;0.00;;;4.90;99.90;;;;;;6243232;22;20008;-73
2022/01/25 05:09:06;;;;;;;0.00;0.00;;;4.80;99.90;;;;;;6240992;22;20004;-73
2022/01/25 05:11:34;;;;;;;0.00;0.00;;;4.80;99.90;;;;;;6242969;22;20332;-73
2022/01/25 05:16:36;;;;;;;0.00;0.00;;;4.70;99.90;;;;;;6243930;22;20004;-72
2022/01/25 05:24:20;;;;;;;0.00;0.00;;;4.70;99.90;;;;;;6245107;23;20075;-73
2022/01/25 05:26:46;;;;;;;0.00;0.00;;;4.80;99.90;;;;;;6241813;23;20061;-74
2022/01/25 05:29:12;;;;;;;0.00;0.00;;;4.70;99.90;;;;;;6241066;23;20599;-73
2022/01/25 05:31:38;;;;;;;0.00;0.00;;;4.70;99.90;;;;;;6243729;22;20066;-73
2022/01/25 05:34:07;;;;;;;0.00;0.00;;;4.60;99.90;;;;;;6241166;22;20034;-74
2022/01/25 05:36:33;;;;;;;0.00;0.00;;;4.50;99.90;;;;;;6242589;22;20259;-74
2022/01/25 05:39:02;;;;;;;0.00;0.00;;;4.60;99.90;;;;;;6240393;22;20034;-73
2022/01/25 05:41:31;;;;;;;0.00;0.00;;;4.60;99.90;;;;;;6240841;22;20429;-73
2022/01/25 05:46:37;;;;;;;0.00;0.00;;;4.70;99.90;;;;;;6242084;23;20005;-73
2022/01/25 05:49:02;;;;;;;0.00;0.00;;;4.80;99.90;;;;;;6242758;22;20447;-74
2022/01/25 05:51:28;;;;;;;0.00;0.00;;;4.80;99.90;;;;;;6242546;22;20000;-73
2022/01/25 05:53:54;;;;;;;0.00;0.00;;;4.90;99.90;;;;;;6241729;23;19997;-72
2022/01/25 05:56:20;;;;;;;0.00;0.00;;;4.80;99.90;;;;;;6242797;23;20000;-73
2022/01/25 05:58:46;;;;;;;0.00;0.00;;;4.60;99.90;;;;;;6242793;22;20012;-73
2022/01/25 06:01:11;;;;;;;0.00;0.00;;;4.40;99.90;;;;;;6240637;23;20019;-72
2022/01/25 06:03:40;;;;;;;0.00;0.00;;;4.40;99.90;;;;;;6242624;23;20068;-74
2022/01/25 06:06:06;;;;;;;0.00;0.00;;;4.50;99.90;;;;;;6242882;22;20075;-73
2022/01/25 06:08:31;;;;;;;0.00;0.00;;;4.50;99.90;;;;;;6240909;23;20032;-73
2022/01/25 06:10:57;;;;;;;0.00;0.00;;;4.40;99.90;;;;;;6242675;23;20012;-73
2022/01/25 06:13:23;;;;;;;0.00;0.00;;;4.30;99.90;;;;;;6239564;23;20003;-74
2022/01/25 06:15:48;;;;;;;0.00;0.00;;;4.30;99.90;;;;;;6240139;23;20004;-74
2022/01/25 06:18:14;;;;;;;0.00;0.00;;;4.30;99.90;;;;;;6239212;23;20142;-73
2022/01/25 06:20:40;;;;;;;0.00;0.00;;;4.30;99.90;;;;;;6240493;23;20004;-74
2022/01/25 06:23:05;;;;;;;0.00;0.00;;;4.40;99.90;;;;;;6242265;22;20054;-74
2022/01/25 06:25:34;;;;;;;0.00;0.00;;;4.50;99.90;;;;;;6242089;23;20490;-75
2022/01/25 06:28:00;;;;;;;0.00;0.00;;;4.50;99.90;;;;;;6240836;22;20035;-73
2022/01/25 06:30:26;;;;;;;0.00;0.00;;;4.50;99.90;;;;;;6241114;23;20011;-75
2022/01/25 06:32:51;;;;;;;0.00;0.00;;;4.60;99.90;;;;;;6242118;23;19996;-74
2022/01/25 06:35:17;;;;;;;0.00;0.00;;;4.60;99.90;;;;;;6243244;23;20012;-73
2022/01/25 06:37:44;;;;;;;0.00;0.00;;;4.70;99.90;;;;;;6243377;23;20083;-76
2022/01/25 06:40:11;;;;;;;0.00;0.00;;;4.50;99.90;;;;;;6242820;22;20011;-73
2022/01/25 06:42:37;;;;;;;0.00;0.00;;;4.40;99.90;;;;;;6244417;22;20068;-74
2022/01/25 06:45:13;;;;;;;0.00;0.00;;;4.50;99.90;;;;;;6245074;22;20467;-74
2022/01/25 06:47:39;;;;;;;0.00;0.00;;;4.60;99.90;;;;;;6243504;22;20083;-73
2022/01/25 06:50:05;;;;;;;0.00;0.00;;;4.50;99.90;;;;;;6244594;23;20268;-74
2022/01/25 06:52:31;;;;;;;0.00;0.00;;;4.50;99.90;;;;;;6244279;22;19992;-73
2022/01/25 06:54:56;;;;;;;0.00;0.00;;;4.60;99.90;;;;;;6243688;22;20007;-74
2022/01/25 06:57:22;;;;;;;0.00;0.00;;;4.50;99.90;;;;;;6244201;23;20000;-73
2022/01/25 06:59:48;;;;;;;0.00;0.00;;;4.40;99.90;;;;;;6243809;23;20081;-73
2022/01/25 07:02:14;;;;;;;0.00;0.00;;;4.40;99.90;;;;;;6239647;23;20000;-75
2022/01/25 07:04:40;;;;;;;0.00;0.00;;;4.30;99.90;;;;;;6243566;22;20011;-74
2022/01/25 07:07:08;;;;;;;0.00;0.00;;;4.30;99.90;;;;;;6239924;23;20099;-74
2022/01/25 07:09:35;;;;;;;0.00;0.00;;;4.30;99.90;;;;;;6242846;23;20004;-74
2022/01/25 07:12:01;;;;;;;0.00;0.00;;;4.40;99.90;;;;;;6240693;23;20016;-73
2022/01/25 07:14:27;;;;;;;0.00;0.00;;;4.40;99.90;;;;;;6240325;23;20034;-74
2022/01/25 07:16:54;;;;;;;0.00;0.00;;;4.50;99.90;;;;;;6241155;23;20435;-73
2022/01/25 07:19:20;;;;;;;0.00;0.00;;;4.50;99.90;;;;;;6239404;23;20011;-73
2022/01/25 07:21:46;;;;;;;0.00;0.00;;;4.50;99.90;;;;;;6240033;23;20000;-74
2022/01/25 07:24:11;;;;;;;0.00;0.00;;;4.60;99.90;;;;;;6241761;23;20028;-74
2022/01/25 07:26:37;;;;;;;0.00;0.00;;;4.60;99.90;;;;;;6238833;22;20137;-74
2022/01/25 07:29:03;;;;;;;0.00;0.00;;;4.50;99.90;;;;;;6241703;22;20058;-74
2022/01/25 07:31:28;;;;;;;0.00;0.00;;;4.60;99.90;;;;;;6241799;22;20008;-75
2022/01/25 07:33:54;;;;;;;0.00;0.00;;;4.60;99.90;;;;;;6239863;22;20075;-74
2022/01/25 07:36:20;;;;;;;0.00;0.00;;;4.50;99.90;;;;;;6243482;23;20084;-75
2022/01/25 07:38:46;;;;;;;0.00;0.00;;;4.50;99.90;;;;;;6242986;23;20000;-76
2022/01/25 07:41:11;;;;;;;0.00;0.00;;;4.50;99.90;;;;;;6239547;23;20035;-76
2022/01/25 07:43:37;;;;;;;0.00;0.00;;;4.40;99.90;;;;;;6240980;23;20003;-75
2022/01/25 07:46:04;;;;;;;0.00;0.00;;;4.40;99.90;;;;;;6239883;23;20121;-75
2022/01/25 07:48:31;;;;;;;0.00;0.00;;;4.40;99.90;;;;;;6240417;22;20012;-76
2022/01/25 07:50:56;;;;;;;;;;;4.40;99.90;;;;;;6213764;23;20008;-76
2022/01/25 07:53:22;;;;;;;0.00;0.00;;;4.40;99.90;;;;;;6238839;23;20326;-76
2022/01/25 07:55:48;;;;;;;0.00;0.00;;;4.40;99.90;;;;;;6240562;23;20024;-74
2022/01/25 07:58:14;;;;;;;0.00;0.00;;;4.30;99.90;;;;;;6240029;23;20336;-75
2022/01/25 08:00:39;;;;;;;0.00;0.00;;;4.20;99.90;;;;;;6239608;23;20079;-77
2022/01/25 08:03:05;;;;;;;0.00;0.00;;;4.20;99.90;;;;;;6242143;23;20051;-76
2022/01/25 08:05:31;;;;;;;0.00;0.00;;;4.20;99.90;;;;;;6242435;23;20007;-73
2022/01/25 08:07:59;;;;;;;0.00;0.00;;;4.10;99.90;;;;;;6240961;22;20035;-74
2022/01/25 08:10:28;;;;;;;0.00;0.00;;;4.00;99.90;;;;;;6242460;22;19996;-74
2022/01/25 08:12:54;;;;;;;0.00;0.00;;;4.20;99.90;;;;;;6242425;22;20026;-73
2022/01/25 08:15:20;;;;;;;0.00;0.00;;;4.30;99.90;;;;;;6243062;22;20388;-73
2022/01/25 08:17:46;;;;;;;;;;;4.40;99.90;;;;;;6243191;22;20019;-73
2022/01/25 08:20:12;;;;;;;0.00;0.00;;;4.30;99.90;;;;;;6216276;23;19907;-74
2022/01/25 08:22:40;;;;;;;0.00;0.00;;;4.20;99.90;;;;;;6213026;23;20360;-74
2022/01/25 08:25:06;;;;;;;0.00;0.00;;;4.10;99.90;;;;;;6211775;23;20003;-74
2022/01/25 08:27:32;;;;;;;0.00;0.00;;;4.10;99.90;;;;;;6211823;23;20004;-72
2022/01/25 08:29:58;;;;;;;0.00;0.00;;;4.00;99.90;;;;;;6219242;23;19989;-74
2022/01/25 08:32:24;;;;;;;0.00;0.00;;;4.10;99.90;;;;;;6210118;23;20078;-74
2022/01/25 08:34:50;;;;;;;;;;;4.30;99.90;;;;;;6211542;23;19996;-73
2022/01/25 08:37:16;;;;;;;0.00;0.00;;;4.20;99.90;;;;;;6211971;23;19900;-75
2022/01/25 08:39:41;;;;;;;;;;;4.20;99.90;;;;;;6211315;23;20055;-74
2022/01/25 08:42:08;;;;;;;0.00;0.00;;;4.30;99.90;;;;;;6210408;23;19904;-75
2022/01/25 08:44:35;;;;;;;0.00;0.00;;;4.40;99.90;;;;;;6208616;23;20385;-76
2022/01/25 08:47:02;;;;;;;0.00;0.00;;;4.40;99.90;;;;;;6210172;23;20416;-75
2022/01/25 08:49:30;;;;;;;0.00;0.00;;;4.40;99.90;;;;;;6210354;23;20084;-75
2022/01/25 08:51:56;;;;;;;0.00;0.00;;;4.40;99.90;;;;;;6209774;23;20333;-75
2022/01/25 08:54:21;;;;;;;0.00;0.00;;;4.50;99.90;;;;;;6210755;23;19996;-74
2022/01/25 08:56:47;;;;;;;0.00;0.00;;;4.50;99.90;;;;;;6211185;23;20008;-73
2022/01/25 08:59:13;;;;;;;0.00;0.00;;;4.50;99.90;;;;;;6212177;23;20007;-75
2022/01/25 09:01:39;;;;;;;0.00;0.00;;;4.40;99.90;;;;;;6210688;23;20004;-74
2022/01/25 09:04:04;;;;;;;0.00;0.00;;;4.30;99.90;;;;;;6210671;23;20401;-74
2022/01/25 09:06:30;;;;;;;0.00;0.00;;;4.30;99.90;;;;;;6212457;23;20274;-75
2022/01/25 09:09:01;;;;;;;;;;;4.40;99.90;;;;;;6211435;23;20004;-75
2022/01/25 09:11:27;;;;;;;0.00;0.00;;;4.40;99.90;;;;;;6211730;23;20292;-73
2022/01/25 09:13:53;;;;;;;;;;;4.30;99.90;;;;;;6211519;23;20005;-73
2022/01/25 09:16:18;;;;;;;0.00;0.00;;;4.40;99.90;;;;;;6209068;23;20209;-75
2022/01/25 09:18:44;;;;;;;0.00;0.00;;;4.20;99.90;;;;;;6212369;23;20436;-74
2022/01/25 09:21:10;;;;;;;0.00;0.00;;;4.20;99.90;;;;;;6210911;23;20433;-75
2022/01/25 09:23:36;;;;;;;0.00;0.00;;;4.30;99.90;;;;;;6212166;23;20000;-75
2022/01/25 09:26:02;;;;;;;;;;;4.30;99.90;;;;;;6212865;23;19996;-76
2022/01/25 09:28:28;;;;;;;0.00;0.00;;;4.30;99.90;;;;;;6211274;23;19935;-75
2022/01/25 09:30:54;;;;;;;0.00;0.00;;;4.20;99.90;;;;;;6211659;23;20001;-75
2022/01/25 09:33:22;;;;;;;0.00;0.00;;;4.00;99.90;;;;;;6209923;23;20353;-75
2022/01/25 09:35:48;;;;;;;0.00;0.00;;;4.10;99.90;;;;;;6212381;23;19997;-75
2022/01/25 09:38:13;;;;;;;;;;;4.30;99.90;;;;;;6212810;23;20005;-75
2022/01/25 09:40:39;;;;;;;0.00;0.00;;;4.30;99.90;;;;;;6209544;23;20231;-75
2022/01/25 09:43:06;;;;;;;0.00;0.00;;;4.20;99.90;;;;;;6212307;23;20051;-75
2022/01/25 09:45:33;;;;;;;0.00;0.00;;;4.10;99.90;;;;;;6212695;23;19996;-74
2022/01/25 09:47:59;;;;;;;0.00;0.00;;;4.00;99.90;;;;;;6211498;23;20028;-74
2022/01/25 09:50:25;;;;;;;0.00;0.00;;;4.00;99.90;;;;;;6214185;23;20329;-75
2022/01/25 09:52:51;;;;;;;0.00;0.00;;;4.00;99.90;;;;;;6213586;23;20291;-74
2022/01/25 09:55:18;;;;;;;;;;;4.00;99.90;;;;;;6213409;23;20028;-75
2022/01/25 09:57:44;;;;;;;0.00;0.00;;;4.10;99.90;;;;;;6214446;23;19962;-75
2022/01/25 10:00:12;;;;;;;0.00;0.00;;;4.00;99.90;;;;;;6210905;23;20008;-74
2022/01/25 10:02:50;;;;;;;0.00;0.00;;;3.90;99.90;;;;;;6213677;23;20037;-75
2022/01/25 10:05:26;;;;;;;0.00;0.00;;;3.90;99.90;;;;;;6213739;23;20068;-75
2022/01/25 10:07:57;;;;;;;0.00;0.00;;;4.10;99.90;;;;;;6214235;23;20004;-74
2022/01/25 10:10:25;;;;;;;0.00;0.00;;;4.00;99.90;;;;;;6215875;23;20001;-74
2022/01/25 10:12:51;;;;;;;0.00;0.00;;;4.00;99.90;;;;;;6216183;23;20031;-74
2022/01/25 10:15:17;;;;;;;0.00;0.00;;;4.00;99.90;;;;;;6213490;23;19993;-74
2022/01/25 10:17:44;;;;;;;0.00;0.00;;;4.20;99.90;;;;;;6214876;23;20008;-75
2022/01/25 10:20:31;;;;;;;0.00;0.00;;;4.40;99.90;;;;;;6212450;23;20036;-77
2022/01/25 10:23:00;;;;;;;0.00;0.00;;;4.20;99.90;;;;;;6214448;23;20003;-75
2022/01/25 10:25:52;;;;;;;0.00;0.00;;;4.30;99.90;;;;;;6214324;23;20051;-75
2022/01/25 10:28:27;;;;;;;0.00;0.00;;;4.30;99.90;;;;;;6207172;23;20009;-75
2022/01/25 10:30:56;;;;;;;0.00;0.00;;;4.30;99.90;;;;;;6214401;23;20496;-74
2022/01/25 10:33:31;;;;;;;0.00;0.00;;;4.20;99.90;;;;;;6213255;23;19997;-76
2022/01/25 10:36:01;;;;;;;0.00;0.00;;;4.30;99.90;;;;;;6215536;23;19997;-74
2022/01/25 10:38:32;;;;;;;0.00;0.00;;;4.40;99.90;;;;;;6216297;23;20100;-75
2022/01/25 10:41:05;;;;;;;0.00;0.00;;;4.20;99.90;;;;;;6214849;23;20009;-75
2022/01/25 10:43:32;;;;;;;0.00;0.00;;;4.30;99.90;;;;;;6214001;23;20037;-75
2022/01/25 10:46:29;;;;;;;0.00;0.00;;;4.10;99.90;;;;;;6214713;23;20041;-75
2022/01/25 10:48:55;;;;;;;0.03;0.03;;;4.00;99.90;;;;;;6213815;23;20008;-74
2022/01/25 10:51:28;;;;;;;0.00;0.00;;;4.00;99.90;;;;;;6215300;23;20071;-75
2022/01/25 10:54:23;;;;;;;0.00;0.00;;;4.10;99.90;;;;;;6213914;23;20001;-74
2022/01/25 10:56:53;;;;;;;0.00;0.00;;;4.10;99.90;;;;;;6206984;23;20028;-74
2022/01/25 10:59:23;;;;;;;0.00;0.00;;;4.00;99.90;;;;;;6214393;23;20005;-75
2022/01/25 11:01:52;;;;;;;0.00;0.00;;;4.00;99.90;;;;;;6213681;23;20337;-76
2022/01/25 11:04:21;;;;;;;0.00;0.00;;;4.10;99.90;;;;;;6215945;23;20051;-75
2022/01/25 11:06:54;;;;;;;0.00;0.00;;;4.30;99.90;;;;;;6213576;23;20023;-74
2022/01/25 11:09:24;;;;;;;0.00;0.00;;;4.40;99.90;;;;;;6212774;23;20026;-74
2022/01/25 11:11:55;;;;;;;0.00;0.00;;;4.30;99.90;;;;;;6214006;23;20016;-73
2022/01/25 11:17:05;;;;;;;0.00;0.00;;;4.10;99.90;;;;;;6215137;23;20012;-75
2022/01/25 11:19:30;;;;;;;0.00;0.00;;;4.00;99.90;;;;;;6214661;23;20001;-75
2022/01/25 11:21:59;;;;;;;0.00;0.00;;;4.00;99.90;;;;;;6217249;23;20131;-75
2022/01/25 11:24:29;;;;;;;0.00;0.00;;;3.80;99.90;;;;;;6218231;23;20115;-75
2022/01/25 11:26:56;;;;;;;0.00;0.00;;;3.70;99.90;;;;;;6218339;23;20001;-75
2022/01/25 11:29:21;;;;;;;0.00;0.00;;;3.80;99.90;;;;;;6215460;23;20344;-75
2022/01/25 11:32:00;;;;;;;0.00;0.00;;;3.90;99.90;;;;;;6217683;23;19997;-74
2022/01/25 11:34:28;;;;;;;0.00;0.00;;;4.00;99.90;;;;;;6214805;23;20476;-74
2022/01/25 11:37:01;;;;;;;0.00;0.00;;;4.20;99.90;;;;;;6217234;23;20000;-74
2022/01/25 11:39:29;;;;;;;0.00;0.00;;;4.20;99.90;;;;;;6215758;23;20452;-74
2022/01/25 11:42:08;;;;;;;0.00;0.00;;;4.20;99.90;;;;;;6214026;23;20008;-75
2022/01/25 11:44:44;;;;;;;0.00;0.00;;;3.90;99.90;;;;;;6215086;23;20031;-74
2022/01/25 11:47:13;;;;;;;0.00;0.00;;;3.90;99.90;;;;;;6214781;23;20005;-77
2022/01/25 11:49:55;;;;;;;0.00;0.00;;;3.90;99.90;;;;;;6215701;23;20054;-75
2022/01/25 11:52:22;;;;;;;0.00;0.00;;;4.10;99.90;;;;;;6218532;23;20005;-75
2022/01/25 11:54:51;;;;;;;0.00;0.00;;;4.20;99.90;;;;;;6217452;23;19996;-74
2022/01/25 11:57:24;;;;;;;0.00;0.00;;;4.20;99.90;;;;;;6218709;23;20003;-73
2022/01/25 11:59:55;;;;;;;0.00;0.00;;;4.30;99.90;;;;;;6218090;23;20012;-75
2022/01/25 12:02:41;;;;;;;0.00;0.00;;;4.30;99.90;;;;;;6215307;23;20000;-75
2022/01/25 12:05:09;;;;;;;0.00;0.00;;;4.30;99.90;;;;;;6216157;23;20079;-75
2022/01/25 12:07:40;;;;;;;0.00;0.00;;;4.30;99.90;;;;;;6211260;23;20004;-74
2022/01/25 12:10:32;;;;;;;0.00;0.00;;;4.30;99.90;;;;;;6215625;23;20020;-75
2022/01/25 12:13:17;;;;;;;0.00;0.00;;;4.30;99.90;;;;;;6216045;23;20017;-75
2022/01/25 12:15:44;;;;;;;0.00;0.00;;;4.40;99.90;;;;;;6214347;23;19997;-75
2022/01/25 12:18:49;;;;;;;0.00;0.00;;;4.40;99.90;;;;;;6214926;23;20087;-75
2022/01/25 12:21:15;;;;;;;0.00;0.00;;;4.30;99.90;;;;;;6212986;23;20315;-75
2022/01/25 12:23:46;;;;;;;0.00;0.00;;;4.20;99.90;;;;;;6213812;23;20011;-75
2022/01/25 12:26:18;;;;;;;0.00;0.00;;;4.30;99.90;;;;;;6213057;23;20000;-75
2022/01/25 12:28:46;;;;;;;0.00;0.00;;;4.10;99.90;;;;;;6213665;23;20083;-77
2022/01/25 12:31:17;;;;;;;0.00;0.00;;;4.20;99.90;;;;;;6214744;23;20098;-75
2022/01/25 12:33:44;;;;;;;0.00;0.00;;;4.20;99.90;;;;;;6213944;23;20306;-75
2022/01/25 12:36:10;;;;;;;0.00;0.00;;;4.20;99.90;;;;;;6215108;23;19996;-74
2022/01/25 12:38:51;;;;;;;0.00;0.00;;;4.30;99.90;;;;;;6215219;23;20062;-75
2022/01/25 12:41:23;;;;;;;0.00;0.00;;;4.30;99.90;;;;;;6212369;23;20441;-75
2022/01/25 12:43:57;;;;;;;0.00;0.00;;;4.50;99.90;;;;;;6213697;23;20062;-76
2022/01/25 12:46:28;;;;;;;0.00;0.00;;;4.50;99.90;;;;;;6214165;23;20484;-75
2022/01/25 12:49:10;;;;;;;0.00;0.00;;;4.40;99.90;;;;;;6212021;23;20452;-75
2022/01/25 12:51:38;;;;;;;0.00;0.00;;;4.40;99.90;;;;;;6212908;23;20005;-74
2022/01/25 12:54:07;;;;;;;0.00;0.00;;;4.40;99.90;;;;;;6212401;23;20064;-74
2022/01/25 12:56:36;;;;;;;0.00;0.00;;;4.40;99.90;;;;;;6215036;23;20001;-75
2022/01/25 12:59:14;;;;;;;0.00;0.00;;;4.40;99.90;;;;;;6211907;23;20036;-75
2022/01/25 13:01:42;;;;;;;0.00;0.00;;;4.60;99.90;;;;;;6209679;23;20040;-76
2022/01/25 13:04:10;;;;;;;0.00;0.00;;;4.70;99.90;;;;;;6213987;23;20020;-76
2022/01/25 13:06:38;;;;;;;0.00;0.00;;;4.90;99.90;;;;;;6212037;23;20003;-76
2022/01/25 13:09:14;;;;;;;0.00;0.00;;;4.70;99.90;;;;;;6213978;23;20005;-75
2022/01/25 13:12:16;;;;;;;0.00;0.00;;;4.60;99.90;;;;;;6213537;23;20421;-76
2022/01/25 13:14:51;;;;;;;0.00;0.00;;;4.50;99.90;;;;;;6195778;23;20431;-75
2022/01/25 13:17:20;;;;;;;0.00;0.00;;;4.40;99.90;;;;;;6213520;23;20092;-75
2022/01/25 13:20:02;;;;;;;0.00;0.00;;;4.70;99.90;;;;;;6211232;23;20445;-75
2022/01/25 13:22:33;;;;;;;0.00;0.00;;;5.00;99.90;;;;;;6213631;23;20329;-74
2022/01/25 13:27:45;;;;;;;0.00;0.00;;;4.80;99.90;;;;;;6212506;23;20303;-75
2022/01/25 13:32:56;;;;;;;0.00;0.00;;;4.90;99.90;;;;;;6212506;23;20061;-75
2022/01/25 13:35:30;;;;;;;0.00;0.00;;;4.80;99.90;;;;;;6212328;23;20163;-75
2022/01/25 13:38:21;;;;;;;0.00;0.00;;;4.90;99.90;;;;;;6212409;23;20008;-74
2022/01/25 13:46:43;;;;;;;0.00;0.00;;;4.90;99.90;;;;;;6216155;23;20051;-75
2022/01/25 13:49:18;;;;;;;0.00;0.00;;;4.80;99.90;;;;;;6215370;23;20037;-78
2022/01/25 13:51:50;;;;;;;0.00;0.00;;;4.90;99.90;;;;;;6215251;23;20058;-75
2022/01/25 13:54:18;;;;;;;0.00;0.00;;;4.70;99.90;;;;;;6213291;23;20515;-74
2022/01/25 13:56:45;;;;;;;0.00;0.00;;;4.80;99.90;;;;;;6215876;23;20455;-75
2022/01/25 13:59:11;;;;;;;0.00;0.00;;;4.80;99.90;;;;;;6188872;23;20009;-75
2022/01/25 14:01:40;;;;;;;0.00;0.00;;;5.00;99.90;;;;;;6211964;23;20012;-75
2022/01/25 14:04:10;;;;;;;0.00;0.00;;;5.10;99.90;;;;;;6215430;23;20386;-73
2022/01/25 14:06:41;;;;;;;0.00;0.00;;;5.00;99.90;;;;;;6213547;23;20092;-74
2022/01/25 14:09:16;;;;;;;0.00;0.00;;;5.00;99.90;;;;;;6213616;23;20502;-75
2022/01/25 14:25:41;;;;;;;0.00;0.00;;;5.10;99.90;;;;;;6218291;23;20004;-74
2022/01/25 14:28:12;;;;;;;0.00;0.00;;;5.10;99.90;;;;;;6215033;23;20027;-75
2022/01/25 14:30:41;;;;;;;0.00;0.00;;;4.90;99.90;;;;;;6216273;23;20001;-74
2022/01/25 14:33:14;;;;;;;0.00;0.00;;;4.90;99.90;;;;;;6215113;23;19996;-75
2022/01/25 14:35:49;;;;;;;0.00;0.00;;;4.90;99.90;;;;;;6214859;23;20012;-74
2022/01/25 14:38:26;;;;;;;0.00;0.00;;;4.80;99.90;;;;;;6215692;23;20000;-75
2022/01/25 14:41:08;;;;;;;0.00;0.00;;;5.00;99.90;;;;;;6213698;23;20425;-75
2022/01/25 14:43:39;;;;;;;0.00;0.00;;;5.10;99.90;;;;;;6214869;23;20012;-75
2022/01/25 14:46:07;;;;;;;0.00;0.00;;;5.00;99.90;;;;;;6216634;23;19996;-76
2022/01/25 14:48:36;;;;;;;0.00;0.00;;;5.10;99.90;;;;;;6213263;23;20012;-76
2022/01/25 14:51:04;;;;;;;0.00;0.00;;;5.00;99.90;;;;;;6217823;23;20104;-75
2022/01/25 14:53:30;;;;;;;0.00;0.00;;;5.00;99.90;;;;;;6214627;23;19996;-75
2022/01/25 14:55:59;;;;;;;0.00;0.00;;;5.00;99.90;;;;;;6217783;23;19997;-76
2022/01/25 15:01:30;;;;;;;0.00;0.00;;;5.20;99.90;;;;;;6153643;23;20009;-76
2022/01/25 15:03:57;;;;;;;0.00;0.00;;;5.40;99.90;;;;;;6153441;23;20013;-74
2022/01/25 15:06:23;;;;;;;0.00;0.00;;;5.20;99.90;;;;;;6183116;23;20008;-75
2022/01/25 15:08:58;;;;;;;0.00;0.00;;;5.10;99.90;;;;;;6214590;23;20481;-75
2022/01/25 15:11:31;;;;;;;0.00;0.00;;;5.20;99.90;;;;;;6216898;23;20019;-75
2022/01/25 15:14:06;;;;;;;0.00;0.00;;;5.10;99.90;;;;;;6214212;23;20400;-76
2022/01/25 15:16:31;;;;;;;0.00;0.00;;;5.10;99.90;;;;;;6215726;23;20001;-72
2022/01/25 15:18:57;;;;;;;0.00;0.00;;;5.10;99.90;;;;;;6215014;23;20005;-74
2022/01/25 15:21:23;;;;;;;0.00;0.00;;;5.20;99.90;;;;;;6213843;23;20055;-75
2022/01/25 15:23:50;;;;;;;0.00;0.00;;;5.20;99.90;;;;;;6214913;23;20001;-75
2022/01/25 15:26:18;;;;;;;0.00;0.00;;;5.20;99.90;;;;;;6215063;23;20068;-75
2022/01/25 15:28:49;;;;;;;0.00;0.00;;;5.10;99.90;;;;;;6213062;23;20455;-74
2022/01/25 15:31:18;;;;;;;0.00;0.00;;;5.10;99.90;;;;;;6213031;23;20083;-74